Danmark — OXDK — position and weather

sailwx.info

Track history (hours):
 
Tides and Currents Weather Stations Pressure Air Temp Water Temp Dewpoint Dewpoint Depression Visibility Wind Speed Wind Dir Waves Ship Positions

Danmark (Denmark)

Last reported at 2020-Sep-19 11:00 UTC. Time now 2020-Sep-23 04:25 UTC.
Position N 57°26' E 010°32'.

Length 60 m; beam 10 m; draft 5 m.

Type: Sailing vessel. MMSI: 219500000.

Date/timePositionNaut miles runAvg speedWind from/ knotsBaromVisibWave heightAir tempDewpointWater temp
2020-Sep-19 11:00N 57°26' E 010°32'0 0.0
2020-Sep-19 10:00N 57°26' E 010°32'5 2.1
2020-Sep-19 07:30N 57°22' E 010°39'2 3.3
2020-Sep-19 07:00N 57°20' E 010°39'7 3.3
2020-Sep-19 05:00N 57°14' E 010°43'2 3.2
2020-Sep-19 04:30N 57°12' E 010°44'7 3.4
2020-Sep-19 02:30N 57°06' E 010°47'3 2.8
2020-Sep-19 01:30N 57°04' E 010°50'28 5.2
2020-Sep-18 20:00N 56°36' E 011°01'6 5.8
2020-Sep-18 19:00N 56°30' E 011°02'5 5.3
2020-Sep-18 18:00N 56°25' E 011°01'15 4.9
2020-Sep-18 15:00N 56°12' E 010°50'7 4.4
2020-Sep-18 13:30N 56°06' E 010°44'12 3.8
2020-Sep-18 10:30N 56°06' E 010°24'5 1.7
2020-Sep-18 07:30N 56°07' E 010°15'0 0.0
2020-Sep-18 07:00N 56°07' E 010°15'0 0.0
2020-Sep-18 04:57N 56°07' E 010°15'0 0.0
2020-Sep-18 03:00N 56°07' E 010°15'0 0.0
2020-Sep-18 01:30N 56°07' E 010°15'0 0.0
2020-Sep-18 01:00N 56°07' E 010°15'0 0.0
2020-Sep-17 19:30N 56°07' E 010°15'0 0.0
2020-Sep-17 17:00N 56°07' E 010°15'4 2.9
2020-Sep-17 15:30N 56°07' E 010°23'5 4.6
2020-Sep-17 14:30N 56°05' E 010°30'6 2.4
2020-Sep-17 12:00N 56°04' E 010°41'10 2.4
2020-Sep-17 08:00N 56°07' E 010°57'3 5.9
2020-Sep-17 07:30N 56°09' E 010°59'3 5.3
2020-Sep-17 07:00N 56°12' E 011°02'3 5.6
2020-Sep-17 06:30N 56°14' E 011°04'49 3.4
2020-Sep-16 16:14N 57°03' E 011°16'28 6.6
2020-Sep-16 12:00N 57°30' E 011°25'30 5.9
2020-Sep-16 07:00N 57°41' E 010°33'0 0.1
2020-Sep-16 04:59N 57°41' E 010°33'0 0.0
2020-Sep-16 04:29N 57°41' E 010°33'0 0.0
2020-Sep-16 03:59N 57°41' E 010°33'0 0.0
2020-Sep-16 02:59N 57°41' E 010°33'0 0.0
2020-Sep-15 23:56N 57°41' E 010°33'0 0.0
2020-Sep-15 23:29N 57°41' E 010°33'0 0.0
2020-Sep-15 22:29N 57°41' E 010°33'0 0.0
2020-Sep-15 20:29N 57°41' E 010°33'0 0.0
2020-Sep-15 13:59N 57°41' E 010°33'0 0.0
2020-Sep-15 13:31N 57°41' E 010°33'0 0.0
2020-Sep-15 12:00N 57°41' E 010°33'6 2.6
2020-Sep-15 09:30N 57°48' E 010°34'15 7.4
2020-Sep-15 07:31N 57°44' E 010°07'9 4.5
2020-Sep-15 05:31N 57°43' E 009°51'9 3.7
2020-Sep-15 03:00N 57°42' E 009°33'2 4.6
2020-Sep-15 02:30N 57°42' E 009°29'22 4.0
2020-Sep-14 21:00N 57°27' E 008°59'4 4.0
2020-Sep-14 20:00N 57°25' E 008°52'28 5.1
2020-Sep-14 14:30N 57°15' E 008°03'10 4.8
2020-Sep-14 12:30N 57°13' E 007°46'15 5.8
2020-Sep-14 10:00N 57°12' E 007°19'21 5.9
2020-Sep-14 06:30N 57°13' E 006°41'8 8.0
2020-Sep-14 05:30N 57°18' E 006°29'4 8.6
2020-Sep-14 05:00N 57°21' E 006°23'12 8.9
2020-Sep-14 03:39N 57°28' E 006°05'7 7.9
2020-Sep-14 02:45N 57°33' E 005°55'30 7.0
2020-Sep-13 22:30N 57°49' E 005°08'4 6.9
2020-Sep-13 22:00N 57°51' E 005°03'3 6.7
2020-Sep-13 21:30N 57°53' E 004°58'12 2.2
2020-Sep-13 16:00N 57°48' E 004°37'3 5.0
2020-Sep-13 15:30N 57°46' E 004°39'5 5.2
2020-Sep-13 14:30N 57°41' E 004°41'7 6.6
2020-Sep-13 13:30N 57°34' E 004°43'238 4.7
2020-Sep-11 10:57N 53°48' E 002°32'17 8.5
2020-Sep-11 08:58N 53°31' E 002°26'4 9.3
2020-Sep-11 08:30N 53°27' E 002°25'5 9.1
2020-Sep-11 08:00N 53°22' E 002°25'12 7.8
2020-Sep-11 06:30N 53°11' E 002°24'4 7.1
2020-Sep-11 06:01N 53°07' E 002°25'13 6.6
2020-Sep-11 04:00N 52°54' E 002°27'3 6.6
2020-Sep-11 03:30N 52°51' E 002°29'12 3.0
2020-Sep-10 23:31N 52°39' E 002°33'4 2.6
2020-Sep-10 22:01N 52°35' E 002°32'1 2.3
2020-Sep-10 21:30N 52°34' E 002°31'1 2.7
2020-Sep-10 21:01N 52°33' E 002°30'4 2.4
2020-Sep-10 19:31N 52°31' E 002°26'5 1.0
2020-Sep-10 14:30N 52°29' E 002°19'2 0.6
2020-Sep-10 11:31N 52°29' E 002°16'2 4.4
2020-Sep-10 11:01N 52°27' E 002°15'8 5.1
2020-Sep-10 09:31N 52°20' E 002°11'9 6.3
2020-Sep-10 08:00N 52°12' E 002°03'18 6.1
2020-Sep-10 05:01N 51°55' E 001°50'7 4.7
2020-Sep-10 03:31N 51°48' E 001°49'7 3.5
2020-Sep-10 01:30N 51°41' E 001°48'8 3.4
2020-Sep-09 23:00N 51°33' E 001°46'12 3.4
2020-Sep-09 19:31N 51°21' E 001°42'4 2.8
2020-Sep-09 18:01N 51°18' E 001°39'2 3.6
2020-Sep-09 17:31N 51°16' E 001°38'5 3.3
2020-Sep-09 16:01N 51°11' E 001°38'12 3.9
2020-Sep-09 13:01N 50°59' E 001°36'9 4.6
2020-Sep-09 11:00N 50°52' E 001°29'  
Track history (hours):
 
Tides and Currents Weather Stations Pressure Air Temp Water Temp Dewpoint Dewpoint Depression Visibility Wind Speed Wind Dir Waves Ship Positions

Danmark (Denmark)

Last reported at 2020-Sep-19 11:00 UTC. Time now 2020-Sep-23 04:25 UTC.
Position N 57°26' E 010°32'.

Length 60 m; beam 10 m; draft 5 m.

Type: Sailing vessel. MMSI: 219500000.

Date/timePositionNaut miles runAvg speedWind from/ knotsBaromVisibWave heightAir tempDewpointWater temp
2020-Sep-19 11:00N 57°26' E 010°32'0 0.0
2020-Sep-19 10:00N 57°26' E 010°32'5 2.1
2020-Sep-19 07:30N 57°22' E 010°39'2 3.3
2020-Sep-19 07:00N 57°20' E 010°39'7 3.3
2020-Sep-19 05:00N 57°14' E 010°43'2 3.2
2020-Sep-19 04:30N 57°12' E 010°44'7 3.4
2020-Sep-19 02:30N 57°06' E 010°47'3 2.8
2020-Sep-19 01:30N 57°04' E 010°50'28 5.2
2020-Sep-18 20:00N 56°36' E 011°01'6 5.8
2020-Sep-18 19:00N 56°30' E 011°02'5 5.3
2020-Sep-18 18:00N 56°25' E 011°01'15 4.9
2020-Sep-18 15:00N 56°12' E 010°50'7 4.4
2020-Sep-18 13:30N 56°06' E 010°44'12 3.8
2020-Sep-18 10:30N 56°06' E 010°24'5 1.7
2020-Sep-18 07:30N 56°07' E 010°15'0 0.0
2020-Sep-18 07:00N 56°07' E 010°15'0 0.0
2020-Sep-18 04:57N 56°07' E 010°15'0 0.0
2020-Sep-18 03:00N 56°07' E 010°15'0 0.0
2020-Sep-18 01:30N 56°07' E 010°15'0 0.0
2020-Sep-18 01:00N 56°07' E 010°15'0 0.0
2020-Sep-17 19:30N 56°07' E 010°15'0 0.0
2020-Sep-17 17:00N 56°07' E 010°15'4 2.9
2020-Sep-17 15:30N 56°07' E 010°23'5 4.6
2020-Sep-17 14:30N 56°05' E 010°30'6 2.4
2020-Sep-17 12:00N 56°04' E 010°41'10 2.4
2020-Sep-17 08:00N 56°07' E 010°57'3 5.9
2020-Sep-17 07:30N 56°09' E 010°59'3 5.3
2020-Sep-17 07:00N 56°12' E 011°02'3 5.6
2020-Sep-17 06:30N 56°14' E 011°04'49 3.4
2020-Sep-16 16:14N 57°03' E 011°16'28 6.6
2020-Sep-16 12:00N 57°30' E 011°25'30 5.9
2020-Sep-16 07:00N 57°41' E 010°33'0 0.1
2020-Sep-16 04:59N 57°41' E 010°33'0 0.0
2020-Sep-16 04:29N 57°41' E 010°33'0 0.0
2020-Sep-16 03:59N 57°41' E 010°33'0 0.0
2020-Sep-16 02:59N 57°41' E 010°33'0 0.0
2020-Sep-15 23:56N 57°41' E 010°33'0 0.0
2020-Sep-15 23:29N 57°41' E 010°33'0 0.0
2020-Sep-15 22:29N 57°41' E 010°33'0 0.0
2020-Sep-15 20:29N 57°41' E 010°33'0 0.0
2020-Sep-15 13:59N 57°41' E 010°33'0 0.0
2020-Sep-15 13:31N 57°41' E 010°33'0 0.0
2020-Sep-15 12:00N 57°41' E 010°33'6 2.6
2020-Sep-15 09:30N 57°48' E 010°34'15 7.4
2020-Sep-15 07:31N 57°44' E 010°07'9 4.5
2020-Sep-15 05:31N 57°43' E 009°51'9 3.7
2020-Sep-15 03:00N 57°42' E 009°33'2 4.6
2020-Sep-15 02:30N 57°42' E 009°29'22 4.0
2020-Sep-14 21:00N 57°27' E 008°59'4 4.0
2020-Sep-14 20:00N 57°25' E 008°52'28 5.1
2020-Sep-14 14:30N 57°15' E 008°03'10 4.8
2020-Sep-14 12:30N 57°13' E 007°46'15 5.8
2020-Sep-14 10:00N 57°12' E 007°19'21 5.9
2020-Sep-14 06:30N 57°13' E 006°41'8 8.0
2020-Sep-14 05:30N 57°18' E 006°29'4 8.6
2020-Sep-14 05:00N 57°21' E 006°23'12 8.9
2020-Sep-14 03:39N 57°28' E 006°05'7 7.9
2020-Sep-14 02:45N 57°33' E 005°55'30 7.0
2020-Sep-13 22:30N 57°49' E 005°08'4 6.9
2020-Sep-13 22:00N 57°51' E 005°03'3 6.7
2020-Sep-13 21:30N 57°53' E 004°58'12 2.2
2020-Sep-13 16:00N 57°48' E 004°37'3 5.0
2020-Sep-13 15:30N 57°46' E 004°39'5 5.2
2020-Sep-13 14:30N 57°41' E 004°41'7 6.6
2020-Sep-13 13:30N 57°34' E 004°43'238 4.7
2020-Sep-11 10:57N 53°48' E 002°32'17 8.5
2020-Sep-11 08:58N 53°31' E 002°26'4 9.3
2020-Sep-11 08:30N 53°27' E 002°25'5 9.1
2020-Sep-11 08:00N 53°22' E 002°25'12 7.8
2020-Sep-11 06:30N 53°11' E 002°24'4 7.1
2020-Sep-11 06:01N 53°07' E 002°25'13 6.6
2020-Sep-11 04:00N 52°54' E 002°27'3 6.6
2020-Sep-11 03:30N 52°51' E 002°29'12 3.0
2020-Sep-10 23:31N 52°39' E 002°33'4 2.6
2020-Sep-10 22:01N 52°35' E 002°32'1 2.3
2020-Sep-10 21:30N 52°34' E 002°31'1 2.7
2020-Sep-10 21:01N 52°33' E 002°30'4 2.4
2020-Sep-10 19:31N 52°31' E 002°26'5 1.0
2020-Sep-10 14:30N 52°29' E 002°19'2 0.6
2020-Sep-10 11:31N 52°29' E 002°16'2 4.4
2020-Sep-10 11:01N 52°27' E 002°15'8 5.1
2020-Sep-10 09:31N 52°20' E 002°11'9 6.3
2020-Sep-10 08:00N 52°12' E 002°03'18 6.1
2020-Sep-10 05:01N 51°55' E 001°50'7 4.7
2020-Sep-10 03:31N 51°48' E 001°49'7 3.5
2020-Sep-10 01:30N 51°41' E 001°48'8 3.4
2020-Sep-09 23:00N 51°33' E 001°46'12 3.4
2020-Sep-09 19:31N 51°21' E 001°42'4 2.8
2020-Sep-09 18:01N 51°18' E 001°39'2 3.6
2020-Sep-09 17:31N 51°16' E 001°38'5 3.3
2020-Sep-09 16:01N 51°11' E 001°38'12 3.9
2020-Sep-09 13:01N 50°59' E 001°36'9 4.6
2020-Sep-09 11:00N 50°52' E 001°29'  

Dump ship's entire track history